Time;durP1;ratioP1;P1;durP2;ratioP2;P2;SDS_P1;SDS_P2;PMS_P1;PMS_P2;Temp;Humidity;BMP_temperature;BMP_pressure;BME280_temperature;BME280_humidity;BME280_pressure;Samples;Min_cycle;Max_cycle;Signal;HPM_P1;HPM_P2
2023/10/09 00:13:58;;;;;;;10.75;10.25;;;;;;;;;;5085975;27;20772;-70
2023/10/09 00:16:33;;;;;;;10.60;10.10;;;;;;;;;;5100200;28;20032;-70
2023/10/09 00:19:13;;;;;;;12.23;11.52;;;;;;;;;;5086453;28;20042;-69
2023/10/09 00:21:41;;;;;;;10.20;9.70;;;;;;;;;;5086420;28;20020;-71
2023/10/09 00:24:13;;;;;;;10.82;10.27;;;;;;;;;;5093869;28;20113;-71
2023/10/09 00:26:45;;;;;;;10.23;9.73;;;;;;;;;;5086849;28;20027;-71
2023/10/09 00:29:15;;;;;;;10.02;9.52;;;;;;;;;;5097085;28;20022;-70
2023/10/09 00:31:50;;;;;;;10.15;9.65;;;;;;;;;;5088711;28;20024;-70
2023/10/09 00:34:22;;;;;;;10.18;9.68;;;;;;;;;;5090128;28;20040;-71
2023/10/09 00:36:50;;;;;;;10.00;9.50;;;;;;;;;;5093005;28;20081;-70
2023/10/09 00:39:22;;;;;;;10.68;10.13;;;;;;;;;;5086407;28;20054;-70
2023/10/09 00:41:47;;;;;;;10.18;9.68;;;;;;;;;;5092968;28;20020;-70
2023/10/09 00:44:12;;;;;;;10.32;9.82;;;;;;;;;;5094988;28;20713;-69
2023/10/09 00:46:42;;;;;;;9.50;9.10;;;;;;;;;;5088791;28;20028;-69
2023/10/09 00:49:10;;;;;;;10.07;9.57;;;;;;;;;;5096586;28;20441;-70
2023/10/09 00:51:36;;;;;;;10.18;9.68;;;;;;;;;;5075704;28;20111;-69
2023/10/09 00:54:27;;;;;;;10.30;9.80;;;;;;;;;;5079273;28;20132;-70
2023/10/09 00:56:57;;;;;;;9.50;9.07;;;;;;;;;;5090468;28;20537;-71
2023/10/09 00:59:24;;;;;;;10.00;9.50;;;;;;;;;;5091563;28;20036;-71
2023/10/09 01:02:04;;;;;;;10.00;9.50;;;;;;;;;;5093798;28;20020;-71
2023/10/09 01:04:36;;;;;;;10.07;9.57;;;;;;;;;;5083552;28;20031;-70
2023/10/09 01:07:14;;;;;;;9.77;9.27;;;;;;;;;;5093253;28;20031;-70
2023/10/09 01:09:43;;;;;;;10.00;9.50;;;;;;;;;;5086852;28;20028;-70
2023/10/09 01:12:16;;;;;;;10.15;9.65;;;;;;;;;;5086728;28;20528;-70
2023/10/09 01:14:42;;;;;;;10.18;9.68;;;;;;;;;;5076597;28;20031;-70
2023/10/09 01:17:08;;;;;;;10.02;9.52;;;;;;;;;;5072275;28;20384;-69
2023/10/09 01:19:34;;;;;;;9.80;9.30;;;;;;;;;;5078055;28;20032;-70
2023/10/09 01:22:12;;;;;;;10.32;9.82;;;;;;;;;;5072934;28;20056;-70
2023/10/09 01:24:38;;;;;;;9.77;9.27;;;;;;;;;;5067882;28;20167;-70
2023/10/09 01:27:05;;;;;;;9.88;9.38;;;;;;;;;;5068286;28;20032;-70
2023/10/09 01:29:30;;;;;;;10.15;9.65;;;;;;;;;;5070086;28;20461;-70
2023/10/09 01:32:00;;;;;;;9.80;9.30;;;;;;;;;;5071720;28;20100;-70
2023/10/09 01:37:05;;;;;;;9.77;9.27;;;;;;;;;;5071234;28;20032;-70
2023/10/09 01:39:39;;;;;;;9.60;9.15;;;;;;;;;;5081670;28;20476;-69
2023/10/09 01:42:05;;;;;;;9.95;9.45;;;;;;;;;;5075425;28;20032;-69
2023/10/09 01:44:34;;;;;;;9.90;9.40;;;;;;;;;;5072808;28;20027;-70
2023/10/09 01:47:07;;;;;;;10.00;9.50;;;;;;;;;;5077347;28;20500;-69
2023/10/09 01:49:37;;;;;;;9.77;9.27;;;;;;;;;;5084281;28;20051;-70
2023/10/09 01:52:15;;;;;;;9.48;9.05;;;;;;;;;;5076062;28;20028;-70
2023/10/09 01:54:41;;;;;;;10.27;9.77;;;;;;;;;;5082347;28;20012;-70
2023/10/09 01:57:13;;;;;;;9.35;8.95;;;;;;;;;;5074897;28;20384;-69
2023/10/09 01:59:48;;;;;;;9.95;9.48;;;;;;;;;;5067856;28;20142;-71
2023/10/09 02:02:24;;;;;;;10.45;9.95;;;;;;;;;;5074054;28;20025;-70
2023/10/09 02:04:50;;;;;;;10.15;9.65;;;;;;;;;;5063933;28;20079;-70
2023/10/09 02:07:22;;;;;;;9.88;9.38;;;;;;;;;;5071514;28;20024;-70
2023/10/09 02:09:47;;;;;;;10.30;9.80;;;;;;;;;;5069890;28;20109;-70
2023/10/09 02:12:13;;;;;;;9.95;9.45;;;;;;;;;;5073831;28;20678;-70
2023/10/09 02:14:41;;;;;;;10.88;10.27;;;;;;;;;;5064094;28;20032;-70
2023/10/09 02:17:17;;;;;;;9.95;9.45;;;;;;;;;;5076981;28;20482;-69
2023/10/09 02:19:48;;;;;;;9.32;8.93;;;;;;;;;;5072766;28;20024;-70
2023/10/09 02:22:13;;;;;;;10.20;9.70;;;;;;;;;;5072949;28;20515;-70
2023/10/09 02:24:50;;;;;;;9.90;9.40;;;;;;;;;;5070399;28;20439;-70
2023/10/09 02:29:59;;;;;;;9.70;9.20;;;;;;;;;;5079046;28;20086;-70
2023/10/09 02:32:25;;;;;;;9.80;9.32;;;;;;;;;;5071358;28;20033;-69
2023/10/09 02:34:53;;;;;;;9.73;9.25;;;;;;;;;;5078343;28;20024;-71
2023/10/09 02:37:23;;;;;;;10.23;9.73;;;;;;;;;;5073097;28;20516;-69
2023/10/09 02:39:52;;;;;;;9.77;9.27;;;;;;;;;;5078444;28;20301;-69
2023/10/09 02:42:23;;;;;;;10.07;9.57;;;;;;;;;;5066248;28;20036;-69
2023/10/09 02:44:51;;;;;;;9.90;9.40;;;;;;;;;;5076524;28;20024;-70
2023/10/09 02:47:20;;;;;;;10.20;9.70;;;;;;;;;;5067727;28;20023;-71
2023/10/09 02:49:48;;;;;;;10.63;10.10;;;;;;;;;;5077719;28;20366;-70
2023/10/09 02:52:18;;;;;;;9.88;9.38;;;;;;;;;;5071610;28;20497;-70
2023/10/09 02:54:47;;;;;;;10.23;9.73;;;;;;;;;;5078822;28;20016;-70
2023/10/09 02:57:22;;;;;;;9.85;9.35;;;;;;;;;;5067653;28;20062;-69
2023/10/09 02:59:51;;;;;;;9.95;9.45;;;;;;;;;;5060799;28;20485;-69
2023/10/09 03:02:16;;;;;;;9.95;9.45;;;;;;;;;;5065573;28;20085;-70
2023/10/09 03:04:42;;;;;;;9.95;9.45;;;;;;;;;;5069223;28;20028;-70
2023/10/09 03:07:10;;;;;;;10.00;9.50;;;;;;;;;;5064610;28;20042;-70
2023/10/09 03:09:35;;;;;;;11.82;11.15;;;;;;;;;;5066855;28;20016;-70
2023/10/09 03:12:02;;;;;;;10.23;9.73;;;;;;;;;;5069170;28;20056;-70
2023/10/09 03:14:31;;;;;;;10.35;9.85;;;;;;;;;;5078310;28;20020;-70
2023/10/09 03:16:57;;;;;;;10.10;9.60;;;;;;;;;;5066606;28;20029;-70
2023/10/09 03:19:22;;;;;;;9.82;9.32;;;;;;;;;;5085046;28;20047;-70
2023/10/09 03:21:48;;;;;;;10.32;9.82;;;;;;;;;;5070203;28;20043;-70
2023/10/09 03:24:15;;;;;;;10.18;9.68;;;;;;;;;;5075481;28;20032;-70
2023/10/09 03:26:41;;;;;;;9.80;9.30;;;;;;;;;;5074767;28;20048;-70
2023/10/09 03:29:06;;;;;;;9.30;8.90;;;;;;;;;;5077788;28;20062;-70
2023/10/09 03:31:36;;;;;;;9.45;9.05;;;;;;;;;;5069013;28;20020;-70
2023/10/09 03:34:02;;;;;;;11.32;10.73;;;;;;;;;;5074368;28;20028;-70
2023/10/09 03:36:29;;;;;;;10.27;9.77;;;;;;;;;;5061982;28;20058;-70
2023/10/09 03:38:57;;;;;;;10.98;10.38;;;;;;;;;;5073302;28;20570;-70
2023/10/09 03:41:26;;;;;;;9.65;9.18;;;;;;;;;;5072548;28;20024;-71
2023/10/09 03:43:51;;;;;;;9.82;9.32;;;;;;;;;;5069250;28;20025;-70
2023/10/09 03:46:22;;;;;;;10.60;10.02;;;;;;;;;;5076507;28;20048;-71
2023/10/09 03:48:48;;;;;;;10.27;9.77;;;;;;;;;;5074850;28;20077;-69
2023/10/09 03:51:20;;;;;;;10.23;9.73;;;;;;;;;;5064186;28;20025;-71
2023/10/09 03:53:47;;;;;;;9.98;9.48;;;;;;;;;;5071049;28;20025;-71
2023/10/09 03:56:12;;;;;;;9.77;9.27;;;;;;;;;;5075063;28;20021;-70
2023/10/09 03:58:39;;;;;;;9.77;9.27;;;;;;;;;;5073265;28;20496;-70
2023/10/09 04:01:10;;;;;;;10.30;9.80;;;;;;;;;;5075215;28;20441;-70
2023/10/09 04:03:36;;;;;;;10.00;9.50;;;;;;;;;;5068071;28;20029;-70
2023/10/09 04:06:05;;;;;;;10.48;9.95;;;;;;;;;;5069309;28;20310;-72
2023/10/09 04:08:33;;;;;;;10.23;9.73;;;;;;;;;;5071617;28;20031;-71
2023/10/09 04:11:02;;;;;;;10.65;10.07;;;;;;;;;;5069590;28;20089;-71
2023/10/09 04:13:34;;;;;;;9.88;9.38;;;;;;;;;;5069339;28;20490;-70
2023/10/09 04:16:28;;;;;;;10.50;9.95;;;;;;;;;;5074873;28;20027;-68
2023/10/09 04:18:56;;;;;;;10.30;9.80;;;;;;;;;;5072844;28;20013;-70
2023/10/09 04:21:41;;;;;;;10.13;9.63;;;;;;;;;;5060228;28;20024;-69
2023/10/09 04:26:44;;;;;;;11.25;10.65;;;;;;;;;;5063485;28;20063;-69
2023/10/09 04:29:37;;;;;;;10.18;9.68;;;;;;;;;;5065660;28;20024;-70
2023/10/09 04:32:07;;;;;;;10.15;9.65;;;;;;;;;;5071064;28;20036;-68
2023/10/09 04:34:35;;;;;;;10.70;10.13;;;;;;;;;;5070559;28;20079;-69
2023/10/09 04:37:07;;;;;;;10.27;9.77;;;;;;;;;;5068525;28;20021;-69
2023/10/09 04:46:06;;;;;;;10.20;9.70;;;;;;;;;;5061988;28;20109;-70
2023/10/09 04:47:35;;;;;;;10.27;9.77;;;;;;;;;;5060188;28;20048;-70
2023/10/09 04:50:14;;;;;;;10.43;9.93;;;;;;;;;;5063936;28;20024;-70
2023/10/09 04:57:38;;;;;;;10.65;10.15;;;;;;;;;;5062237;28;20020;-70
2023/10/09 05:00:06;;;;;;;10.80;10.30;;;;;;;;;;5070230;28;20023;-71
2023/10/09 05:02:37;;;;;;;10.75;10.25;;;;;;;;;;5063345;28;20374;-71
2023/10/09 05:05:27;;;;;;;10.30;9.82;;;;;;;;;;5064252;28;20020;-67
2023/10/09 05:07:56;;;;;;;10.40;9.90;;;;;;;;;;5062357;28;20032;-68
2023/10/09 05:10:25;;;;;;;10.95;10.45;;;;;;;;;;5077467;28;20035;-68
2023/10/09 05:12:56;;;;;;;10.68;10.18;;;;;;;;;;5064018;28;20048;-68
2023/10/09 05:15:29;;;;;;;11.10;10.60;;;;;;;;;;5063140;28;20025;-68
2023/10/09 05:18:09;;;;;;;12.23;11.65;;;;;;;;;;5063775;28;20400;-69
2023/10/09 05:23:25;;;;;;;11.10;10.60;;;;;;;;;;5061599;28;20563;-68
2023/10/09 05:25:53;;;;;;;11.55;11.05;;;;;;;;;;5068743;28;20637;-69
2023/10/09 05:28:25;;;;;;;11.43;10.93;;;;;;;;;;5069292;28;20028;-68
2023/10/09 05:31:06;;;;;;;11.32;10.82;;;;;;;;;;5066071;28;20032;-69
2023/10/09 05:33:33;;;;;;;11.68;11.18;;;;;;;;;;5061883;28;20515;-68
2023/10/09 05:36:35;;;;;;;11.13;10.63;;;;;;;;;;5059321;28;20039;-69
2023/10/09 05:39:17;;;;;;;11.23;10.73;;;;;;;;;;5057005;28;20043;-69
2023/10/09 05:41:59;;;;;;;11.50;11.00;;;;;;;;;;5060632;28;20031;-68
2023/10/09 05:50:34;;;;;;;11.52;11.02;;;;;;;;;;5076381;28;20125;-69
2023/10/09 06:03:45;;;;;;;11.32;10.82;;;;;;;;;;5061678;28;20452;-72
2023/10/09 06:06:18;;;;;;;12.10;11.60;;;;;;;;;;5052327;28;20480;-69
2023/10/09 06:19:43;;;;;;;11.57;11.07;;;;;;;;;;5047291;28;20029;-67
2023/10/09 06:24:54;;;;;;;11.93;11.43;;;;;;;;;;5068326;28;20482;-70
2023/10/09 06:30:14;;;;;;;12.82;12.23;;;;;;;;;;5059363;28;20070;-68
2023/10/09 06:35:23;;;;;;;12.70;12.10;;;;;;;;;;5068380;28;20496;-67
2023/10/09 06:43:26;;;;;;;11.60;11.10;;;;;;;;;;5062973;28;20031;-66
2023/10/09 06:45:55;;;;;;;11.95;11.45;;;;;;;;;;5065732;28;20051;-66
2023/10/09 06:59:15;;;;;;;12.25;11.70;;;;;;;;;;5063654;28;20019;-63
2023/10/09 07:01:43;;;;;;;13.05;12.45;;;;;;;;;;5064058;28;20043;-66
2023/10/09 07:14:06;;;;;;;12.30;11.75;;;;;;;;;;5061421;28;20477;-66
2023/10/09 07:16:38;;;;;;;12.50;11.90;;;;;;;;;;5066538;28;20830;-66
2023/10/09 07:19:35;;;;;;;11.50;11.00;;;;;;;;;;5063612;28;20051;-65
2023/10/09 07:22:02;;;;;;;12.02;11.52;;;;;;;;;;5064144;28;20036;-68
2023/10/09 07:24:37;;;;;;;11.70;11.20;;;;;;;;;;5058962;28;20048;-68
2023/10/09 07:27:08;;;;;;;12.00;11.50;;;;;;;;;;5063522;28;20102;-66
2023/10/09 07:29:47;;;;;;;12.25;11.73;;;;;;;;;;5062909;28;20033;-69
2023/10/09 07:32:19;;;;;;;11.75;11.25;;;;;;;;;;5060397;28;20031;-67
2023/10/09 07:34:54;;;;;;;12.07;11.57;;;;;;;;;;5064343;28;20495;-65
2023/10/09 07:37:19;;;;;;;11.85;11.35;;;;;;;;;;5060963;28;20032;-65
2023/10/09 07:39:49;;;;;;;11.82;11.32;;;;;;;;;;5057098;28;20166;-66
2023/10/09 07:42:18;;;;;;;11.60;11.10;;;;;;;;;;5060549;28;20506;-66
2023/10/09 07:44:52;;;;;;;11.70;11.20;;;;;;;;;;5058773;28;20036;-69
2023/10/09 07:47:19;;;;;;;;;;;;;;;;;;5062710;28;20048;-70
2023/10/09 07:49:51;;;;;;;11.52;11.02;;;;;;;;;;5055139;28;19921;-67
2023/10/09 07:52:17;;;;;;;11.82;11.32;;;;;;;;;;5068402;28;20860;-68
2023/10/09 07:54:53;;;;;;;11.75;11.25;;;;;;;;;;5068778;28;20148;-74
2023/10/09 07:57:25;;;;;;;12.10;11.60;;;;;;;;;;5059966;28;20156;-72
2023/10/09 08:00:35;;;;;;;12.05;11.55;;;;;;;;;;5061620;28;20016;-67
2023/10/09 08:02:48;;;;;;;12.25;11.75;;;;;;;;;;5060340;28;20017;-64
2023/10/09 08:05:20;;;;;;;11.77;11.27;;;;;;;;;;5063577;28;20047;-68
2023/10/09 08:08:17;;;;;;;11.73;11.23;;;;;;;;;;5060035;28;20031;-66
2023/10/09 08:16:17;;;;;;;11.27;10.77;;;;;;;;;;5063563;28;20142;-66
2023/10/09 08:18:44;;;;;;;11.63;11.13;;;;;;;;;;5058634;28;20036;-66
2023/10/09 08:23:50;;;;;;;11.80;11.30;;;;;;;;;;5065747;28;20020;-66
2023/10/09 08:26:28;;;;;;;11.80;11.30;;;;;;;;;;5059087;28;20061;-67
2023/10/09 08:29:09;;;;;;;11.95;11.45;;;;;;;;;;5065731;28;20032;-66
2023/10/09 08:31:46;;;;;;;12.20;11.70;;;;;;;;;;5062001;28;20028;-65
2023/10/09 08:34:27;;;;;;;12.23;11.73;;;;;;;;;;5057751;28;20068;-65
2023/10/09 08:36:52;;;;;;;12.10;11.60;;;;;;;;;;5068379;28;20020;-67
2023/10/09 08:39:25;;;;;;;12.68;12.07;;;;;;;;;;5067949;28;20499;-65
2023/10/09 08:41:56;;;;;;;12.52;11.93;;;;;;;;;;5065260;28;20020;-67
2023/10/09 08:44:24;;;;;;;12.10;11.60;;;;;;;;;;5068259;28;20029;-64
2023/10/09 08:46:50;;;;;;;12.43;11.82;;;;;;;;;;5069156;28;20492;-67
2023/10/09 08:49:16;;;;;;;12.05;11.52;;;;;;;;;;5067433;28;20032;-65
2023/10/09 08:51:42;;;;;;;11.88;11.38;;;;;;;;;;5072163;28;20028;-65
2023/10/09 08:54:11;;;;;;;12.00;11.50;;;;;;;;;;5070310;28;20043;-63
2023/10/09 08:56:39;;;;;;;11.65;11.15;;;;;;;;;;5060943;28;20059;-63
2023/10/09 08:59:05;;;;;;;11.52;11.02;;;;;;;;;;5072233;28;20033;-64
2023/10/09 09:01:32;;;;;;;11.30;10.80;;;;;;;;;;5072963;28;20015;-63
2023/10/09 09:03:58;;;;;;;11.50;11.00;;;;;;;;;;5074804;28;20078;-63
2023/10/09 09:06:23;;;;;;;11.20;10.70;;;;;;;;;;5066074;28;20028;-63
2023/10/09 09:08:49;;;;;;;11.55;11.05;;;;;;;;;;5072818;28;20021;-63
2023/10/09 09:11:22;;;;;;;11.68;11.18;;;;;;;;;;5072072;28;20016;-63
2023/10/09 09:14:06;;;;;;;12.43;11.82;;;;;;;;;;5068430;28;20049;-63
2023/10/09 09:16:36;;;;;;;11.50;11.00;;;;;;;;;;5079061;28;20012;-63
2023/10/09 09:19:17;;;;;;;11.52;11.02;;;;;;;;;;5082781;28;20020;-64
2023/10/09 09:21:59;;;;;;;11.57;11.07;;;;;;;;;;5068476;28;20019;-63
2023/10/09 09:27:00;;;;;;;11.95;11.45;;;;;;;;;;5077115;28;20040;-63
2023/10/09 09:29:37;;;;;;;11.65;11.15;;;;;;;;;;5069621;28;20119;-63
2023/10/09 09:32:15;;;;;;;11.70;11.20;;;;;;;;;;5067065;28;20028;-64
2023/10/09 09:34:49;;;;;;;12.23;11.63;;;;;;;;;;5075248;28;20063;-63
2023/10/09 09:37:32;;;;;;;12.07;11.50;;;;;;;;;;5069269;28;20041;-63
2023/10/09 09:40:00;;;;;;;11.60;11.10;;;;;;;;;;5068499;28;20246;-63
2023/10/09 09:42:27;;;;;;;11.57;11.07;;;;;;;;;;5069505;28;20024;-62
2023/10/09 09:44:53;;;;;;;11.23;10.73;;;;;;;;;;5074860;28;20033;-62
2023/10/09 09:47:27;;;;;;;12.23;11.63;;;;;;;;;;5066925;28;20174;-62
2023/10/09 09:49:59;;;;;;;11.05;10.55;;;;;;;;;;5072933;28;20052;-63
2023/10/09 09:52:25;;;;;;;11.25;10.75;;;;;;;;;;5070283;28;20492;-62
2023/10/09 09:54:51;;;;;;;12.10;11.50;;;;;;;;;;5080438;28;20476;-64
2023/10/09 09:57:25;;;;;;;11.60;11.10;;;;;;;;;;5065214;28;20040;-63
2023/10/09 09:59:52;;;;;;;;;;;;;;;;;;5073086;28;20025;-63
2023/10/09 10:02:37;;;;;;;11.32;10.82;;;;;;;;;;5066691;28;20437;-62
2023/10/09 10:05:06;;;;;;;10.68;10.18;;;;;;;;;;5066060;28;20064;-64
2023/10/09 10:07:39;;;;;;;11.45;10.95;;;;;;;;;;5064884;28;20477;-64
2023/10/09 10:10:26;;;;;;;11.98;11.38;;;;;;;;;;5074424;28;20046;-63
2023/10/09 10:13:00;;;;;;;11.07;10.57;;;;;;;;;;5067875;28;20040;-64
2023/10/09 10:15:45;;;;;;;11.38;10.88;;;;;;;;;;5072253;28;20025;-63
2023/10/09 10:18:18;;;;;;;11.90;11.30;;;;;;;;;;5068672;28;20028;-63
2023/10/09 10:21:16;;;;;;;11.20;10.70;;;;;;;;;;5066933;28;20024;-63
2023/10/09 10:23:42;;;;;;;10.75;10.25;;;;;;;;;;5076010;28;20039;-63
2023/10/09 10:26:17;;;;;;;11.40;10.90;;;;;;;;;;5069019;28;20381;-63
2023/10/09 10:28:44;;;;;;;11.07;10.57;;;;;;;;;;5073140;28;20152;-63
2023/10/09 10:31:11;;;;;;;12.50;11.90;;;;;;;;;;5069473;28;20028;-63
2023/10/09 10:33:53;;;;;;;10.80;10.30;;;;;;;;;;5071748;28;20083;-63
2023/10/09 10:36:22;;;;;;;11.43;10.93;;;;;;;;;;5072299;28;20262;-63
2023/10/09 10:39:04;;;;;;;11.45;10.95;;;;;;;;;;5071314;28;20017;-63
2023/10/09 10:41:35;;;;;;;11.05;10.55;;;;;;;;;;5072877;28;20031;-63
2023/10/09 10:44:33;;;;;;;11.48;10.98;;;;;;;;;;5070367;28;20091;-62
2023/10/09 10:46:51;;;;;;;10.95;10.45;;;;;;;;;;5064618;28;20017;-63
2023/10/09 10:49:21;;;;;;;10.77;10.27;;;;;;;;;;5068815;28;20507;-62
2023/10/09 10:51:49;;;;;;;10.73;10.23;;;;;;;;;;5065974;28;20016;-63
2023/10/09 10:56:59;;;;;;;13.07;12.43;;;;;;;;;;5077790;28;20028;-62
2023/10/09 10:59:26;;;;;;;11.73;11.18;;;;;;;;;;5067744;28;20036;-64
2023/10/09 11:04:38;;;;;;;11.50;11.00;;;;;;;;;;5056990;28;20029;-63
2023/10/09 11:18:04;;;;;;;12.73;12.13;;;;;;;;;;5067001;28;19928;-63
2023/10/09 11:20:32;;;;;;;12.65;12.05;;;;;;;;;;5052774;28;20029;-64
2023/10/09 11:25:50;;;;;;;12.15;11.55;;;;;;;;;;5069604;28;20064;-66
2023/10/09 11:31:15;;;;;;;12.02;11.43;;;;;;;;;;5063317;28;20031;-69
2023/10/09 11:33:48;;;;;;;11.80;11.23;;;;;;;;;;5069615;28;20023;-67
2023/10/09 11:36:14;;;;;;;11.23;10.73;;;;;;;;;;5061801;28;20439;-65
2023/10/09 11:38:45;;;;;;;11.18;10.68;;;;;;;;;;5072634;28;20110;-65
2023/10/09 11:41:24;;;;;;;12.98;12.32;;;;;;;;;;5068137;28;20033;-65
2023/10/09 11:43:54;;;;;;;12.27;11.68;;;;;;;;;;5053117;28;20182;-65
2023/10/09 11:47:14;;;;;;;12.30;11.70;;;;;;;;;;5067971;28;20025;-65
2023/10/09 11:54:31;;;;;;;11.63;11.07;;;;;;;;;;5060944;28;20112;-64
2023/10/09 11:56:57;;;;;;;12.50;11.90;;;;;;;;;;5057780;28;20143;-64
2023/10/09 11:59:23;;;;;;;13.68;12.98;;;;;;;;;;5060128;28;20033;-66
2023/10/09 12:01:52;;;;;;;12.52;11.93;;;;;;;;;;5063105;28;20037;-64
2023/10/09 12:04:18;;;;;;;12.00;11.40;;;;;;;;;;5059953;28;20024;-63
2023/10/09 12:06:44;;;;;;;12.57;11.98;;;;;;;;;;5067462;28;20028;-64
2023/10/09 12:09:16;;;;;;;11.52;11.02;;;;;;;;;;5065543;28;20634;-65
2023/10/09 12:11:42;;;;;;;11.27;10.77;;;;;;;;;;5066078;28;20141;-64
2023/10/09 12:14:07;;;;;;;12.38;11.77;;;;;;;;;;5066141;28;20415;-64
2023/10/09 12:16:33;;;;;;;11.45;10.95;;;;;;;;;;5064094;28;20074;-65
2023/10/09 12:18:59;;;;;;;11.98;11.38;;;;;;;;;;5062022;28;20020;-63
2023/10/09 12:21:27;;;;;;;12.38;11.77;;;;;;;;;;5064536;28;20029;-63
2023/10/09 12:23:57;;;;;;;10.80;10.30;;;;;;;;;;5069330;28;20032;-65
2023/10/09 12:26:22;;;;;;;12.02;11.43;;;;;;;;;;5068316;28;20117;-63
2023/10/09 12:28:49;;;;;;;12.25;11.65;;;;;;;;;;5043404;28;20024;-63
2023/10/09 12:31:15;;;;;;;12.07;11.48;;;;;;;;;;5062553;28;20659;-63
2023/10/09 12:33:41;;;;;;;13.20;12.50;;;;;;;;;;5055709;28;20165;-64
2023/10/09 12:36:06;;;;;;;12.15;11.55;;;;;;;;;;5060733;28;20025;-64
2023/10/09 12:38:31;;;;;;;12.35;11.75;;;;;;;;;;5073414;28;20020;-63
2023/10/09 12:41:08;;;;;;;12.73;12.13;;;;;;;;;;5053271;28;20480;-65
2023/10/09 12:43:37;;;;;;;11.52;11.02;;;;;;;;;;5060113;28;20037;-64
2023/10/09 12:46:06;;;;;;;11.25;10.75;;;;;;;;;;5057115;28;20889;-66
2023/10/09 12:48:31;;;;;;;11.85;11.25;;;;;;;;;;5065273;28;20035;-63
2023/10/09 12:50:57;;;;;;;12.40;11.80;;;;;;;;;;5062199;28;20056;-65
2023/10/09 12:53:22;;;;;;;12.13;11.52;;;;;;;;;;5059919;28;20028;-63
2023/10/09 12:55:47;;;;;;;10.90;10.40;;;;;;;;;;5054880;28;20060;-63
2023/10/09 12:58:15;;;;;;;11.10;10.60;;;;;;;;;;5056785;28;20501;-64
2023/10/09 13:00:44;;;;;;;11.05;10.55;;;;;;;;;;5062958;28;20021;-63
2023/10/09 13:03:18;;;;;;;11.82;11.23;;;;;;;;;;5063005;28;20029;-64
2023/10/09 13:05:56;;;;;;;10.95;10.45;;;;;;;;;;5065090;28;20116;-64
2023/10/09 13:08:22;;;;;;;11.25;10.75;;;;;;;;;;5067991;28;20361;-64
2023/10/09 13:10:55;;;;;;;11.30;10.80;;;;;;;;;;5072852;28;20178;-65
2023/10/09 13:13:21;;;;;;;11.20;10.70;;;;;;;;;;5067848;28;20071;-65
2023/10/09 13:15:46;;;;;;;11.35;10.85;;;;;;;;;;5070167;28;20115;-65
2023/10/09 13:18:12;;;;;;;10.73;10.23;;;;;;;;;;5068015;28;20473;-65
2023/10/09 13:20:40;;;;;;;11.45;10.95;;;;;;;;;;5064467;28;20079;-65
2023/10/09 13:23:06;;;;;;;11.48;10.98;;;;;;;;;;5061010;28;20028;-65
2023/10/09 13:25:39;;;;;;;11.63;11.05;;;;;;;;;;5076721;28;20048;-65
2023/10/09 13:28:05;;;;;;;11.00;10.50;;;;;;;;;;5066473;28;20024;-65
2023/10/09 13:30:30;;;;;;;12.10;11.50;;;;;;;;;;5063182;28;20020;-65
2023/10/09 13:32:55;;;;;;;11.13;10.63;;;;;;;;;;5076301;28;20043;-65
2023/10/09 13:35:37;;;;;;;11.25;10.75;;;;;;;;;;5072656;28;20016;-65
2023/10/09 13:38:07;;;;;;;11.13;10.63;;;;;;;;;;5070322;28;20503;-64
2023/10/09 13:40:35;;;;;;;11.00;10.50;;;;;;;;;;5083424;28;20021;-66
2023/10/09 13:43:00;;;;;;;11.35;10.85;;;;;;;;;;5071690;28;20023;-63
2023/10/09 13:45:30;;;;;;;11.32;10.82;;;;;;;;;;5077727;28;20443;-64
2023/10/09 13:47:59;;;;;;;12.00;11.40;;;;;;;;;;5072360;28;20025;-64
2023/10/09 13:50:28;;;;;;;12.05;11.45;;;;;;;;;;5074087;28;20035;-64
2023/10/09 13:52:54;;;;;;;11.73;11.15;;;;;;;;;;5069991;28;20035;-66
2023/10/09 13:55:19;;;;;;;11.07;10.57;;;;;;;;;;5069659;28;20712;-64
2023/10/09 13:57:45;;;;;;;11.25;10.75;;;;;;;;;;5073730;28;20028;-64
2023/10/09 14:00:32;;;;;;;11.43;10.93;;;;;;;;;;5072737;28;20022;-65
2023/10/09 14:03:01;;;;;;;10.63;10.13;;;;;;;;;;5076949;28;20024;-65
2023/10/09 14:05:27;;;;;;;10.52;10.02;;;;;;;;;;5076167;28;20515;-65
2023/10/09 14:07:57;;;;;;;11.65;11.05;;;;;;;;;;5073874;28;20027;-65
2023/10/09 14:10:26;;;;;;;11.25;10.75;;;;;;;;;;5067141;28;20046;-65
2023/10/09 14:12:54;;;;;;;11.38;10.82;;;;;;;;;;5074441;28;20044;-65
2023/10/09 14:15:19;;;;;;;11.43;10.90;;;;;;;;;;5079537;28;20024;-65
2023/10/09 14:17:46;;;;;;;11.25;10.75;;;;;;;;;;5067401;28;20024;-65
2023/10/09 14:23:20;;;;;;;11.95;11.35;;;;;;;;;;5023536;28;20037;-64
2023/10/09 14:25:49;;;;;;;10.73;10.23;;;;;;;;;;5063304;28;20035;-65
2023/10/09 14:28:18;;;;;;;11.75;11.15;;;;;;;;;;5065024;28;20040;-64
2023/10/09 14:30:44;;;;;;;11.18;10.68;;;;;;;;;;5071056;28;20039;-64
2023/10/09 14:33:12;;;;;;;10.45;9.95;;;;;;;;;;5073457;28;20202;-66
2023/10/09 14:35:41;;;;;;;11.45;10.93;;;;;;;;;;5072396;28;20037;-65
2023/10/09 14:38:12;;;;;;;10.75;10.25;;;;;;;;;;5070523;28;20036;-65
2023/10/09 14:40:47;;;;;;;10.82;10.32;;;;;;;;;;5067317;28;20052;-64
2023/10/09 14:43:19;;;;;;;11.00;10.50;;;;;;;;;;5068768;28;20589;-64
2023/10/09 14:45:48;;;;;;;11.20;10.70;;;;;;;;;;5070496;28;20028;-67
2023/10/09 14:48:13;;;;;;;10.60;10.10;;;;;;;;;;5069704;28;20024;-65
2023/10/09 14:50:46;;;;;;;10.60;10.10;;;;;;;;;;5071621;28;20488;-64
2023/10/09 14:53:12;;;;;;;10.40;9.90;;;;;;;;;;5069994;28;20131;-64
2023/10/09 14:55:38;;;;;;;11.18;10.68;;;;;;;;;;5066503;28;20098;-64
2023/10/09 14:58:03;;;;;;;10.55;10.05;;;;;;;;;;5065958;28;20074;-65
2023/10/09 15:00:33;;;;;;;10.50;10.00;;;;;;;;;;5070599;28;20025;-64
2023/10/09 15:02:59;;;;;;;12.23;11.63;;;;;;;;;;5069639;28;20043;-64
2023/10/09 15:05:24;;;;;;;11.07;10.55;;;;;;;;;;5062739;28;20032;-65
2023/10/09 15:07:50;;;;;;;11.02;10.52;;;;;;;;;;5072839;28;20024;-65
2023/10/09 15:10:16;;;;;;;11.27;10.75;;;;;;;;;;5070803;28;20388;-65
2023/10/09 15:12:42;;;;;;;10.82;10.32;;;;;;;;;;5070279;28;20389;-64
2023/10/09 15:15:13;;;;;;;10.80;10.30;;;;;;;;;;5074996;28;20507;-64
2023/10/09 15:17:47;;;;;;;11.40;10.80;;;;;;;;;;5068918;28;20024;-64
2023/10/09 15:20:13;;;;;;;10.95;10.45;;;;;;;;;;5068406;28;20033;-66
2023/10/09 15:22:39;;;;;;;10.20;9.70;;;;;;;;;;5077841;28;20514;-64
2023/10/09 15:25:05;;;;;;;11.65;11.05;;;;;;;;;;5072254;28;20393;-64
2023/10/09 15:27:31;;;;;;;10.35;9.85;;;;;;;;;;5069753;28;20024;-64
2023/10/09 15:29:56;;;;;;;10.48;9.98;;;;;;;;;;5074517;28;20082;-65
2023/10/09 15:32:23;;;;;;;10.57;10.07;;;;;;;;;;5066798;28;20124;-63
2023/10/09 15:34:48;;;;;;;11.07;10.57;;;;;;;;;;5060633;28;20100;-65
2023/10/09 15:37:14;;;;;;;11.00;10.50;;;;;;;;;;5064584;28;20063;-64
2023/10/09 15:39:39;;;;;;;11.55;10.95;;;;;;;;;;5059016;28;20027;-65
2023/10/09 15:42:06;;;;;;;10.50;10.00;;;;;;;;;;5066665;28;20518;-65
2023/10/09 15:44:33;;;;;;;10.52;10.02;;;;;;;;;;5069340;28;20021;-63
2023/10/09 15:46:59;;;;;;;11.88;11.27;;;;;;;;;;5071632;28;20071;-65
2023/10/09 15:49:33;;;;;;;10.85;10.35;;;;;;;;;;5067319;28;20060;-64
2023/10/09 15:51:59;;;;;;;10.30;9.80;;;;;;;;;;5060503;28;20016;-65
2023/10/09 15:54:27;;;;;;;10.77;10.27;;;;;;;;;;5069178;28;20021;-63
2023/10/09 15:56:54;;;;;;;11.00;10.50;;;;;;;;;;5065454;28;20012;-64
2023/10/09 15:59:19;;;;;;;10.30;9.80;;;;;;;;;;5070631;28;20039;-64
2023/10/09 16:01:45;;;;;;;10.35;9.85;;;;;;;;;;5071563;28;20013;-63
2023/10/09 16:04:10;;;;;;;11.02;10.52;;;;;;;;;;5068394;28;20029;-65
2023/10/09 16:06:39;;;;;;;10.82;10.32;;;;;;;;;;5073665;28;20024;-65
2023/10/09 16:09:05;;;;;;;10.23;9.73;;;;;;;;;;5069174;28;20048;-64
2023/10/09 16:11:33;;;;;;;10.55;10.05;;;;;;;;;;5070185;28;20043;-65
2023/10/09 16:13:59;;;;;;;11.02;10.52;;;;;;;;;;5076518;28;20041;-63
2023/10/09 16:16:28;;;;;;;10.98;10.48;;;;;;;;;;5061957;28;20607;-65
2023/10/09 16:18:55;;;;;;;10.65;10.15;;;;;;;;;;5072927;28;20121;-63
2023/10/09 16:21:21;;;;;;;11.95;11.35;;;;;;;;;;5069935;28;20024;-64
2023/10/09 16:23:49;;;;;;;10.75;10.25;;;;;;;;;;5062865;28;20024;-64
2023/10/09 16:26:16;;;;;;;10.43;9.93;;;;;;;;;;5064192;28;20074;-64
2023/10/09 16:28:41;;;;;;;10.60;10.10;;;;;;;;;;5077515;28;20032;-65
2023/10/09 16:31:13;;;;;;;10.70;10.20;;;;;;;;;;5071175;28;20051;-65
2023/10/09 16:33:38;;;;;;;10.85;10.35;;;;;;;;;;5064169;28;20040;-65
2023/10/09 16:36:04;;;;;;;10.23;9.73;;;;;;;;;;5073570;28;20388;-65
2023/10/09 16:38:30;;;;;;;10.40;9.90;;;;;;;;;;5069028;28;20508;-66
2023/10/09 16:40:56;;;;;;;10.95;10.45;;;;;;;;;;5069644;28;20481;-63
2023/10/09 16:43:25;;;;;;;11.23;10.68;;;;;;;;;;5071591;28;20028;-65
2023/10/09 16:45:51;;;;;;;10.60;10.10;;;;;;;;;;5075753;28;20028;-65
2023/10/09 16:48:16;;;;;;;10.68;10.18;;;;;;;;;;5068964;28;20397;-65
2023/10/09 16:50:46;;;;;;;11.07;10.57;;;;;;;;;;5077958;28;20020;-64
2023/10/09 16:53:12;;;;;;;10.55;10.05;;;;;;;;;;5071700;28;20039;-65
2023/10/09 16:55:48;;;;;;;10.50;10.00;;;;;;;;;;5075519;28;20024;-64
2023/10/09 16:58:15;;;;;;;10.38;9.88;;;;;;;;;;5077051;28;20422;-65